Time;durP1;ratioP1;P1;durP2;ratioP2;P2;SDS_P1;SDS_P2;PMS_P1;PMS_P2;Temp;Humidity;BMP_temperature;BMP_pressure;BME280_temperature;BME280_humidity;BME280_pressure;Samples;Min_cycle;Max_cycle;Signal;HPM_P1;HPM_P2
2022/04/19 00:00:13;;;;;;;7.43;5.20;;;9.50;61.20;;;;;;5094754;28;20120;-74
2022/04/19 00:02:39;;;;;;;8.45;5.28;;;9.40;61.50;;;;;;5076860;28;20382;-75
2022/04/19 00:05:05;;;;;;;10.48;5.32;;;9.40;62.20;;;;;;5094146;28;20027;-74
2022/04/19 00:07:31;;;;;;;7.55;5.05;;;9.40;62.70;;;;;;5094822;28;20024;-72
2022/04/19 00:09:57;;;;;;;10.55;5.53;;;9.30;63.10;;;;;;5076095;28;20028;-75
2022/04/19 00:12:22;;;;;;;6.95;5.32;;;9.30;63.60;;;;;;5094964;28;20029;-74
2022/04/19 00:14:48;;;;;;;6.97;4.68;;;9.30;64.00;;;;;;5094294;28;20464;-74
2022/04/19 00:17:14;;;;;;;8.60;4.88;;;9.30;64.60;;;;;;5094921;28;20376;-74
2022/04/19 00:19:40;;;;;;;7.18;5.35;;;9.30;65.00;;;;;;5094513;28;20036;-74
2022/04/19 00:22:05;;;;;;;7.72;5.30;;;9.20;65.20;;;;;;5093864;28;20027;-75
2022/04/19 00:24:32;;;;;;;9.38;5.40;;;9.20;65.50;;;;;;5093761;28;20379;-74
2022/04/19 00:27:16;;;;;;;7.55;4.93;;;9.20;65.60;;;;;;5093990;28;20031;-74
2022/04/19 00:29:42;;;;;;;6.97;4.93;;;9.20;65.60;;;;;;5076576;28;20031;-74
2022/04/19 00:32:11;;;;;;;9.00;4.70;;;9.20;65.30;;;;;;5093894;28;20035;-72
2022/04/19 00:34:38;;;;;;;6.50;4.63;;;9.20;65.30;;;;;;5094572;28;20472;-72
2022/04/19 00:37:05;;;;;;;6.78;5.13;;;9.10;65.30;;;;;;5093911;28;20111;-73
2022/04/19 00:39:30;;;;;;;7.75;5.03;;;9.10;65.40;;;;;;5094529;28;20469;-74
2022/04/19 00:41:56;;;;;;;8.85;5.20;;;9.10;66.10;;;;;;5075687;28;20058;-73
2022/04/19 00:44:25;;;;;;;11.43;5.07;;;9.00;66.80;;;;;;5090294;28;20032;-73
2022/04/19 00:46:51;;;;;;;6.95;4.70;;;9.00;67.70;;;;;;5073334;28;20029;-74
2022/04/19 00:49:17;;;;;;;6.78;4.95;;;9.00;68.10;;;;;;5073971;28;20032;-73
2022/04/19 00:51:44;;;;;;;7.95;4.90;;;8.90;68.20;;;;;;5073893;28;20475;-74
2022/04/19 00:54:10;;;;;;;6.43;5.20;;;8.90;68.40;;;;;;5073196;28;20091;-72
2022/04/19 00:56:36;;;;;;;8.63;4.75;;;8.80;67.70;;;;;;5073581;28;20029;-72
2022/04/19 00:59:02;;;;;;;7.03;5.07;;;8.70;67.00;;;;;;5073124;28;20100;-72
2022/04/19 01:01:28;;;;;;;6.55;4.50;;;8.70;67.00;;;;;;5055560;28;20144;-73
2022/04/19 01:03:53;;;;;;;6.65;3.83;;;8.60;67.00;;;;;;5073069;28;20036;-74
2022/04/19 01:06:19;;;;;;;7.25;4.25;;;8.60;67.30;;;;;;5073478;28;20028;-73
2022/04/19 01:08:45;;;;;;;7.63;4.38;;;8.60;66.30;;;;;;5089268;28;20089;-73
2022/04/19 01:13:56;;;;;;;7.72;4.72;;;8.60;66.10;;;;;;5092962;28;20034;-74
2022/04/19 01:16:22;;;;;;;7.90;4.90;;;8.60;66.00;;;;;;5093419;28;20064;-73
2022/04/19 01:18:48;;;;;;;9.30;4.30;;;8.60;65.70;;;;;;5093438;28;20024;-78
2022/04/19 01:21:14;;;;;;;4.88;4.05;;;8.60;65.70;;;;;;5075428;28;20427;-74
2022/04/19 01:23:40;;;;;;;6.72;4.55;;;8.60;65.00;;;;;;5093311;28;20095;-74
2022/04/19 01:26:07;;;;;;;9.45;4.75;;;8.60;64.60;;;;;;5092786;28;20089;-73
2022/04/19 01:28:33;;;;;;;7.43;4.60;;;8.60;63.50;;;;;;5093374;28;20028;-73
2022/04/19 01:30:59;;;;;;;5.50;4.22;;;8.60;63.20;;;;;;5092581;28;20031;-73
2022/04/19 01:33:25;;;;;;;7.28;4.10;;;8.60;62.90;;;;;;5093357;28;20056;-73
2022/04/19 01:35:50;;;;;;;5.32;4.53;;;8.60;62.90;;;;;;5091357;28;20421;-73
2022/04/19 01:38:16;;;;;;;6.18;4.50;;;8.60;62.60;;;;;;5093387;28;20044;-73
2022/04/19 01:40:42;;;;;;;8.68;4.90;;;8.70;62.70;;;;;;5093215;28;20028;-72
2022/04/19 01:43:07;;;;;;;6.45;4.28;;;8.70;62.60;;;;;;5092532;28;20127;-74
2022/04/19 01:45:33;;;;;;;5.72;4.13;;;8.80;62.60;;;;;;5074896;28;20120;-74
2022/04/19 01:48:00;;;;;;;5.20;4.35;;;8.80;62.70;;;;;;5092779;28;20059;-74
2022/04/19 01:50:27;;;;;;;5.15;4.10;;;8.80;63.00;;;;;;5074818;28;20028;-74
2022/04/19 01:52:56;;;;;;;6.97;4.47;;;8.80;58.40;;;;;;5092331;28;20031;-74
2022/04/19 01:55:22;;;;;;;4.63;3.50;;;8.80;54.80;;;;;;5092992;28;20085;-73
2022/04/19 01:57:58;;;;;;;5.55;3.88;;;8.90;53.60;;;;;;5093117;28;20031;-73
2022/04/19 02:00:31;;;;;;;6.53;3.85;;;8.90;51.80;;;;;;5092778;28;20048;-73
2022/04/19 02:02:57;;;;;;;7.88;4.20;;;8.90;51.50;;;;;;5092252;28;20024;-73
2022/04/19 02:05:23;;;;;;;6.43;3.97;;;9.00;54.20;;;;;;5074461;28;20362;-72
2022/04/19 02:07:49;;;;;;;5.68;3.83;;;9.00;57.10;;;;;;5092615;28;20024;-73
2022/04/19 02:10:16;;;;;;;6.43;3.90;;;9.00;57.80;;;;;;5092018;28;20020;-72
2022/04/19 02:15:27;;;;;;;7.60;4.38;;;8.90;59.30;;;;;;5092661;28;20110;-73
2022/04/19 02:17:52;;;;;;;6.18;4.07;;;8.90;58.50;;;;;;5091567;28;20032;-78
2022/04/19 02:20:19;;;;;;;5.18;3.88;;;8.90;58.50;;;;;;5092157;28;20020;-74
2022/04/19 02:22:45;;;;;;;7.22;4.75;;;8.90;58.40;;;;;;5074197;28;20024;-74
2022/04/19 02:25:12;;;;;;;6.35;4.47;;;8.90;56.90;;;;;;5073479;28;20024;-73
2022/04/19 02:27:40;;;;;;;6.40;3.85;;;8.90;56.70;;;;;;5092248;28;20464;-73
2022/04/19 02:30:13;;;;;;;6.47;4.07;;;8.90;56.30;;;;;;5091617;28;20024;-73
2022/04/19 02:32:39;;;;;;;8.63;3.83;;;8.90;55.60;;;;;;5092078;28;20032;-73
2022/04/19 02:35:05;;;;;;;6.65;4.05;;;9.00;55.10;;;;;;5091552;28;20028;-74
2022/04/19 02:37:32;;;;;;;5.85;4.28;;;9.00;54.90;;;;;;5091802;28;20031;-73
2022/04/19 02:39:58;;;;;;;6.53;3.90;;;9.00;54.70;;;;;;5091391;28;20028;-74
2022/04/19 02:42:24;;;;;;;4.43;3.28;;;9.00;54.20;;;;;;5092316;28;20028;-73
2022/04/19 02:44:50;;;;;;;5.00;3.80;;;9.00;54.10;;;;;;5078391;28;20099;-73
2022/04/19 02:47:17;;;;;;;6.78;4.40;;;9.00;53.70;;;;;;5070880;28;20086;-74
2022/04/19 02:49:45;;;;;;;5.15;3.92;;;9.10;53.50;;;;;;5071756;28;20051;-74
2022/04/19 02:52:12;;;;;;;5.93;4.38;;;9.10;53.50;;;;;;5071129;28;20522;-73
2022/04/19 02:54:37;;;;;;;6.88;4.07;;;9.10;53.60;;;;;;5072002;28;20039;-73
2022/04/19 02:57:04;;;;;;;6.70;4.10;;;9.10;53.60;;;;;;5071138;28;20024;-73
2022/04/19 02:59:30;;;;;;;7.15;4.35;;;9.10;53.40;;;;;;5071722;28;20051;-73
2022/04/19 03:01:55;;;;;;;7.38;3.92;;;9.10;53.50;;;;;;5071304;28;20056;-80
2022/04/19 03:04:21;;;;;;;7.13;4.35;;;9.10;53.80;;;;;;5053585;28;20045;-74
2022/04/19 03:06:49;;;;;;;5.88;4.20;;;9.10;54.00;;;;;;5077103;28;20032;-74
2022/04/19 03:09:15;;;;;;;7.55;4.03;;;9.10;54.30;;;;;;5073030;28;20056;-74
2022/04/19 03:11:40;;;;;;;6.10;4.03;;;9.10;54.40;;;;;;5091698;28;20066;-74
2022/04/19 03:14:06;;;;;;;4.97;3.67;;;9.10;54.50;;;;;;5091245;28;20028;-74
2022/04/19 03:16:33;;;;;;;7.18;4.95;;;9.10;54.40;;;;;;5091639;28;20036;-74
2022/04/19 03:18:58;;;;;;;7.05;4.10;;;9.10;54.30;;;;;;5090867;28;20032;-74
2022/04/19 03:21:24;;;;;;;5.63;3.90;;;9.10;54.10;;;;;;5092028;28;20479;-74
2022/04/19 03:29:19;;;;;;;7.25;3.92;;;9.10;53.40;;;;;;5091110;28;20139;-75
2022/04/19 03:31:45;;;;;;;4.93;3.85;;;9.10;53.40;;;;;;5091642;28;20427;-75
2022/04/19 03:34:11;;;;;;;5.32;3.65;;;9.10;53.60;;;;;;5091042;28;20094;-76
2022/04/19 03:36:36;;;;;;;6.25;4.43;;;9.00;53.60;;;;;;5091303;28;20074;-76
2022/04/19 03:39:02;;;;;;;10.38;4.13;;;9.00;54.00;;;;;;5090617;28;20077;-76
2022/04/19 03:41:28;;;;;;;7.47;4.18;;;9.00;54.10;;;;;;5091503;28;20021;-76
2022/04/19 03:43:54;;;;;;;6.10;3.55;;;9.00;54.20;;;;;;5091467;28;20028;-75
2022/04/19 03:46:20;;;;;;;7.38;4.25;;;9.00;54.30;;;;;;5090744;28;20215;-76
2022/04/19 03:48:46;;;;;;;6.53;4.00;;;9.00;54.60;;;;;;5091410;28;20024;-75
2022/04/19 03:51:12;;;;;;;7.40;4.60;;;8.90;54.60;;;;;;5072561;28;20094;-75
2022/04/19 03:53:37;;;;;;;5.85;3.83;;;9.00;54.80;;;;;;5091179;28;20055;-76
2022/04/19 03:56:06;;;;;;;6.30;3.63;;;9.00;54.90;;;;;;5090636;28;20073;-77
2022/04/19 03:58:32;;;;;;;7.07;4.22;;;8.90;54.90;;;;;;5092273;28;20024;-76
2022/04/19 04:00:59;;;;;;;6.43;4.03;;;8.90;54.50;;;;;;5095003;28;20062;-76
2022/04/19 04:03:25;;;;;;;5.28;3.92;;;8.90;54.50;;;;;;5095026;28;20020;-76
2022/04/19 04:05:51;;;;;;;6.13;4.13;;;8.90;54.40;;;;;;5076797;28;20142;-76
2022/04/19 04:08:16;;;;;;;7.35;4.00;;;8.90;54.70;;;;;;5094348;28;20354;-76
2022/04/19 04:10:42;;;;;;;5.57;4.30;;;8.90;55.20;;;;;;5094826;28;20518;-76
2022/04/19 04:13:09;;;;;;;6.57;4.50;;;8.90;55.40;;;;;;5094273;28;20032;-76
2022/04/19 04:15:35;;;;;;;5.15;3.72;;;8.90;55.80;;;;;;5094869;28;20051;-75
2022/04/19 04:18:01;;;;;;;10.55;4.70;;;8.90;56.60;;;;;;5094444;28;20024;-84
2022/04/19 04:20:27;;;;;;;6.50;4.68;;;8.80;57.60;;;;;;5076601;28;20031;-76
2022/04/19 04:22:53;;;;;;;6.45;4.53;;;8.80;58.70;;;;;;5076369;28;20457;-76
2022/04/19 04:25:19;;;;;;;6.72;4.40;;;8.80;59.20;;;;;;5094198;28;20042;-76
2022/04/19 04:27:45;;;;;;;6.05;4.05;;;8.70;59.30;;;;;;5094450;28;20032;-76
2022/04/19 04:30:10;;;;;;;5.90;4.38;;;8.60;59.80;;;;;;5093808;28;20031;-76
2022/04/19 04:32:36;;;;;;;6.60;4.57;;;8.60;60.00;;;;;;5076137;28;20046;-77
2022/04/19 04:35:02;;;;;;;6.78;4.65;;;8.60;60.10;;;;;;5094049;28;20024;-84
2022/04/19 04:37:28;;;;;;;6.88;4.10;;;8.60;60.30;;;;;;5094113;28;20028;-77
2022/04/19 04:39:54;;;;;;;7.38;4.50;;;8.60;60.50;;;;;;5094354;28;20477;-77
2022/04/19 04:42:20;;;;;;;6.47;4.28;;;8.60;60.50;;;;;;5093454;28;20032;-75
2022/04/19 04:44:45;;;;;;;7.57;4.38;;;8.70;60.30;;;;;;5077400;28;20047;-77
2022/04/19 04:50:00;;;;;;;8.35;4.35;;;8.70;60.20;;;;;;5074074;28;20051;-76
2022/04/19 04:52:25;;;;;;;7.57;4.72;;;8.70;60.20;;;;;;5073370;28;20032;-76
2022/04/19 04:54:51;;;;;;;6.75;4.70;;;8.70;60.20;;;;;;5073932;28;20029;-74
2022/04/19 04:57:18;;;;;;;7.43;4.32;;;8.70;60.20;;;;;;5073264;28;20445;-75
2022/04/19 04:59:45;;;;;;;6.82;4.78;;;8.70;60.40;;;;;;5073343;28;20382;-75
2022/04/19 05:02:11;;;;;;;8.77;5.00;;;8.80;60.00;;;;;;5072920;28;20078;-76
2022/04/19 05:04:36;;;;;;;8.55;4.72;;;8.80;59.80;;;;;;5081140;28;20028;-75
2022/04/19 05:07:02;;;;;;;7.22;4.93;;;8.80;60.00;;;;;;5093073;28;20052;-74
2022/04/19 05:09:28;;;;;;;7.90;5.32;;;8.80;60.00;;;;;;5093116;28;20020;-74
2022/04/19 05:11:54;;;;;;;7.22;4.93;;;8.80;59.70;;;;;;5092699;28;20046;-77
2022/04/19 05:14:20;;;;;;;6.35;4.60;;;8.80;60.30;;;;;;5092571;28;20027;-74
2022/04/19 05:16:46;;;;;;;6.93;5.00;;;8.80;60.30;;;;;;5093655;28;20121;-74
2022/04/19 05:19:11;;;;;;;7.45;5.10;;;8.80;59.90;;;;;;5087947;28;20089;-74
2022/04/19 05:21:56;;;;;;;7.63;5.15;;;8.80;60.00;;;;;;5073017;28;20028;-73
2022/04/19 05:24:22;;;;;;;7.30;5.18;;;8.70;60.10;;;;;;5072828;28;20024;-73
2022/04/19 05:26:48;;;;;;;6.80;4.70;;;8.70;60.20;;;;;;5072824;28;20102;-73
2022/04/19 05:29:13;;;;;;;6.45;5.15;;;8.70;60.60;;;;;;5071631;28;20036;-73
2022/04/19 05:31:39;;;;;;;9.55;5.45;;;8.70;61.00;;;;;;5072960;28;20522;-74
2022/04/19 05:34:04;;;;;;;8.13;5.57;;;8.70;61.50;;;;;;5072920;28;20063;-74
2022/04/19 05:36:30;;;;;;;6.78;4.90;;;8.70;62.40;;;;;;5072205;28;20082;-75
2022/04/19 05:38:57;;;;;;;9.05;5.35;;;8.70;62.90;;;;;;5073101;28;20063;-74
2022/04/19 05:41:23;;;;;;;9.38;5.43;;;8.70;63.10;;;;;;5072392;28;20061;-73
2022/04/19 05:43:49;;;;;;;6.93;4.75;;;8.80;62.90;;;;;;5054528;28;20044;-73
2022/04/19 05:46:17;;;;;;;8.75;5.68;;;8.80;63.40;;;;;;5054393;28;20082;-73
2022/04/19 05:48:43;;;;;;;6.93;5.00;;;8.90;63.00;;;;;;5073152;28;20532;-74
2022/04/19 05:51:10;;;;;;;9.73;6.43;;;8.90;62.90;;;;;;5072524;28;20373;-74
2022/04/19 05:53:35;;;;;;;6.28;4.88;;;9.00;63.30;;;;;;5054818;28;20384;-73
2022/04/19 05:56:01;;;;;;;6.80;4.97;;;9.00;63.40;;;;;;5054467;28;20111;-73
2022/04/19 05:58:27;;;;;;;8.95;5.55;;;9.00;63.30;;;;;;5071683;28;20277;-73
2022/04/19 06:00:52;;;;;;;8.82;5.15;;;9.00;63.40;;;;;;5072390;28;20075;-73
2022/04/19 06:06:10;;;;;;;11.05;5.45;;;9.00;63.50;;;;;;5039828;28;20465;-74
2022/04/19 06:08:35;;;;;;;8.60;5.22;;;9.00;62.90;;;;;;5072217;28;20111;-74
2022/04/19 06:11:01;;;;;;;7.25;5.40;;;9.00;63.00;;;;;;5037680;28;20052;-74
2022/04/19 06:13:27;;;;;;;8.95;5.25;;;9.00;62.50;;;;;;5071761;28;20031;-74
2022/04/19 06:15:53;;;;;;;9.02;5.00;;;8.90;63.10;;;;;;5072113;28;20032;-74
2022/04/19 06:18:19;;;;;;;7.25;5.18;;;9.00;63.60;;;;;;5071521;28;20031;-74
2022/04/19 06:20:45;;;;;;;7.40;5.15;;;8.90;62.80;;;;;;5071824;28;20024;-74
2022/04/19 06:23:11;;;;;;;6.75;5.18;;;8.90;63.60;;;;;;5071139;28;20124;-74
2022/04/19 06:25:37;;;;;;;8.23;5.45;;;8.80;63.70;;;;;;5072040;28;20032;-74
2022/04/19 06:28:03;;;;;;;8.27;4.90;;;8.80;63.90;;;;;;5071618;28;20062;-73
2022/04/19 06:30:29;;;;;;;9.45;5.13;;;8.80;64.20;;;;;;5071409;28;20029;-73
2022/04/19 06:32:54;;;;;;;7.43;5.55;;;8.80;64.30;;;;;;5053878;28;20021;-74
2022/04/19 06:35:20;;;;;;;7.35;4.85;;;8.80;64.30;;;;;;5073757;28;20430;-74
2022/04/19 06:37:47;;;;;;;9.18;5.13;;;8.80;65.00;;;;;;5071629;28;20350;-74
2022/04/19 06:40:13;;;;;;;5.70;4.35;;;8.80;65.30;;;;;;5071219;28;20025;-74
2022/04/19 06:42:39;;;;;;;7.72;5.25;;;8.80;65.30;;;;;;5053656;28;20522;-73
2022/04/19 06:45:05;;;;;;;7.20;4.88;;;8.80;64.90;;;;;;5071704;28;20158;-72
2022/04/19 06:47:30;;;;;;;8.68;5.10;;;8.80;64.20;;;;;;5070822;28;20346;-73
2022/04/19 06:49:59;;;;;;;7.38;4.97;;;8.80;64.10;;;;;;5053645;28;20129;-74
2022/04/19 06:52:25;;;;;;;7.00;4.80;;;8.80;64.90;;;;;;5071030;28;20070;-74
2022/04/19 06:54:51;;;;;;;6.75;4.88;;;8.80;65.40;;;;;;5071593;28;20376;-74
2022/04/19 06:57:16;;;;;;;7.93;5.07;;;8.80;66.40;;;;;;5070985;28;20028;-73
2022/04/19 06:59:42;;;;;;;11.05;5.50;;;8.80;66.40;;;;;;5071165;28;20089;-72
2022/04/19 07:02:07;;;;;;;6.57;4.68;;;8.70;67.60;;;;;;5071644;28;20038;-74
2022/04/19 07:04:33;;;;;;;7.85;5.47;;;8.70;68.00;;;;;;5070970;28;20466;-74
2022/04/19 07:06:59;;;;;;;9.70;4.68;;;8.70;69.60;;;;;;5071309;28;20449;-75
2022/04/19 07:09:26;;;;;;;6.95;4.88;;;8.60;69.60;;;;;;5071021;28;20033;-74
2022/04/19 07:11:52;;;;;;;8.73;4.85;;;8.70;70.10;;;;;;5071387;28;20514;-73
2022/04/19 07:14:18;;;;;;;6.35;4.80;;;8.70;70.90;;;;;;5070779;28;20120;-73
2022/04/19 07:16:43;;;;;;;8.90;5.60;;;8.70;71.60;;;;;;5078770;28;20194;-73
2022/04/19 07:19:09;;;;;;;7.63;5.50;;;8.70;71.20;;;;;;5091663;28;20032;-73
2022/04/19 07:27:03;;;;;;;9.20;5.90;;;8.60;73.30;;;;;;5091503;28;20444;-73
2022/04/19 07:29:29;;;;;;;8.65;5.57;;;8.50;72.30;;;;;;5090977;28;20024;-75
2022/04/19 07:31:56;;;;;;;10.43;5.57;;;8.50;73.20;;;;;;5091512;28;20455;-73
2022/04/19 07:34:22;;;;;;;9.60;6.10;;;8.50;74.40;;;;;;5093195;28;20085;-73
2022/04/19 07:36:48;;;;;;;8.85;5.90;;;8.50;75.40;;;;;;5095571;28;20518;-73
2022/04/19 07:39:14;;;;;;;8.07;6.05;;;8.40;75.70;;;;;;5095457;28;20020;-73
2022/04/19 07:41:45;;;;;;;12.15;6.40;;;8.40;78.20;;;;;;5095359;28;20058;-73
2022/04/19 07:44:11;;;;;;;8.02;6.18;;;8.40;78.80;;;;;;5095362;28;20028;-73
2022/04/19 07:46:37;;;;;;;9.55;6.18;;;8.40;79.50;;;;;;5094460;28;20395;-73
2022/04/19 07:49:03;;;;;;;9.50;5.93;;;8.40;80.10;;;;;;5095134;28;20033;-73
2022/04/19 07:51:29;;;;;;;8.40;6.78;;;8.40;80.40;;;;;;5094307;28;20034;-73
2022/04/19 07:53:55;;;;;;;8.43;6.47;;;8.40;81.00;;;;;;5095045;28;20024;-73
2022/04/19 07:56:22;;;;;;;7.88;5.93;;;8.40;83.00;;;;;;5094657;28;20032;-74
2022/04/19 07:58:48;;;;;;;9.32;6.47;;;8.40;84.00;;;;;;5095209;28;20058;-73
2022/04/19 08:01:18;;;;;;;7.50;6.03;;;8.30;83.30;;;;;;5076355;28;20048;-74
2022/04/19 08:03:44;;;;;;;7.55;5.82;;;8.30;83.20;;;;;;5094863;28;20024;-74
2022/04/19 08:06:09;;;;;;;8.10;6.63;;;8.30;83.60;;;;;;5094753;28;20370;-74
2022/04/19 08:08:36;;;;;;;10.55;6.85;;;8.40;83.50;;;;;;5094076;28;20141;-74
2022/04/19 08:11:03;;;;;;;8.98;6.90;;;8.40;84.30;;;;;;5094873;28;20024;-73
2022/04/19 08:13:29;;;;;;;9.82;6.85;;;8.30;84.80;;;;;;5093953;28;20028;-72
2022/04/19 08:15:54;;;;;;;10.25;7.40;;;8.40;85.60;;;;;;5094741;28;20028;-73
2022/04/19 08:18:21;;;;;;;9.10;6.72;;;8.30;85.50;;;;;;5093712;28;20126;-73
2022/04/19 08:20:47;;;;;;;7.82;6.57;;;8.30;85.20;;;;;;5094439;28;20472;-73
2022/04/19 08:23:13;;;;;;;10.55;6.25;;;8.30;84.90;;;;;;5094512;28;20043;-73
2022/04/19 08:25:40;;;;;;;9.00;7.03;;;8.40;86.10;;;;;;5093818;28;20024;-73
2022/04/19 08:28:06;;;;;;;10.20;6.65;;;8.30;85.80;;;;;;5094739;28;20461;-72
2022/04/19 08:30:32;;;;;;;8.73;6.55;;;8.40;86.70;;;;;;5093993;28;20126;-72
2022/04/19 08:32:59;;;;;;;9.80;6.30;;;8.40;86.90;;;;;;5094489;28;20052;-73
2022/04/19 08:35:25;;;;;;;8.13;6.25;;;8.40;85.60;;;;;;5093701;28;20032;-73
2022/04/19 08:37:51;;;;;;;11.70;7.35;;;8.50;84.80;;;;;;5070328;28;20013;-72
2022/04/19 08:40:17;;;;;;;12.68;6.97;;;8.50;85.30;;;;;;5074109;28;20047;-72
2022/04/19 08:42:44;;;;;;;13.73;7.78;;;8.60;86.00;;;;;;5055468;28;20032;-72
2022/04/19 08:45:15;;;;;;;19.77;8.57;;;8.70;87.00;;;;;;5073123;28;20034;-74
2022/04/19 08:47:43;;;;;;;9.98;6.50;;;8.70;85.30;;;;;;5073320;28;20079;-73
2022/04/19 08:50:13;;;;;;;12.43;6.78;;;8.70;84.30;;;;;;5073867;28;20059;-73
2022/04/19 08:52:40;;;;;;;8.90;7.05;;;8.80;84.60;;;;;;5073240;28;20639;-74
2022/04/19 08:57:51;;;;;;;9.98;6.93;;;8.90;85.00;;;;;;5073863;28;20028;-73
2022/04/19 09:00:22;;;;;;;11.45;7.10;;;8.80;82.50;;;;;;5073462;28;20048;-73
2022/04/19 09:02:52;;;;;;;11.67;7.03;;;8.80;83.30;;;;;;5073545;28;20063;-73
2022/04/19 09:05:19;;;;;;;10.77;7.13;;;8.80;85.30;;;;;;5055087;28;20029;-74
2022/04/19 09:07:46;;;;;;;13.43;7.10;;;8.70;84.10;;;;;;5073834;28;20032;-73
2022/04/19 09:10:16;;;;;;;9.20;7.53;;;8.70;85.50;;;;;;5093476;28;20043;-73
2022/04/19 09:13:07;;;;;;;10.32;6.57;;;8.70;86.20;;;;;;5093059;28;20038;-73
2022/04/19 09:15:34;;;;;;;9.15;7.80;;;8.70;86.10;;;;;;5074616;28;20028;-73
2022/04/19 09:18:00;;;;;;;10.52;7.80;;;8.70;85.80;;;;;;5074938;28;20028;-73
2022/04/19 09:20:26;;;;;;;11.35;8.45;;;8.70;85.70;;;;;;5074643;28;20020;-72
2022/04/19 09:23:06;;;;;;;11.48;8.43;;;8.80;86.30;;;;;;5093121;28;20404;-72
2022/04/19 09:25:32;;;;;;;10.35;7.70;;;8.70;87.70;;;;;;5092870;28;20054;-73
2022/04/19 09:27:59;;;;;;;9.50;6.95;;;8.70;87.90;;;;;;5093439;28;20036;-73
2022/04/19 09:30:28;;;;;;;11.45;7.78;;;8.70;87.60;;;;;;5092670;28;20123;-74
2022/04/19 09:33:06;;;;;;;9.25;7.43;;;8.80;87.90;;;;;;5093175;28;20024;-73
2022/04/19 09:35:45;;;;;;;12.63;7.55;;;8.80;88.40;;;;;;5092634;28;20031;-73
2022/04/19 09:38:12;;;;;;;12.25;7.78;;;8.80;89.20;;;;;;5092984;28;20085;-73
2022/04/19 09:40:38;;;;;;;7.88;6.38;;;8.80;88.80;;;;;;5092185;28;20373;-73
2022/04/19 09:43:10;;;;;;;9.77;6.78;;;8.70;86.60;;;;;;5093149;28;20031;-73
2022/04/19 09:45:56;;;;;;;8.02;7.22;;;8.70;84.70;;;;;;5092073;28;20491;-73
2022/04/19 09:48:24;;;;;;;8.38;7.00;;;8.60;85.50;;;;;;5092748;28;20020;-73
2022/04/19 09:50:54;;;;;;;10.57;7.85;;;8.60;84.70;;;;;;5092661;28;20115;-73
2022/04/19 09:53:25;;;;;;;8.20;7.00;;;8.60;83.80;;;;;;5092888;28;20027;-72
2022/04/19 09:55:52;;;;;;;8.43;6.55;;;8.50;84.90;;;;;;5074086;28;20438;-73
2022/04/19 09:58:19;;;;;;;13.10;7.38;;;8.50;85.70;;;;;;5092625;28;20063;-73
2022/04/19 10:00:46;;;;;;;9.85;7.47;;;8.40;85.10;;;;;;5091675;28;20052;-73
2022/04/19 10:08:45;;;;;;;10.93;7.38;;;8.40;88.90;;;;;;5091521;28;20542;-73
2022/04/19 10:11:11;;;;;;;10.30;8.40;;;8.30;89.70;;;;;;5092294;28;20077;-73
2022/04/19 10:13:38;;;;;;;10.07;7.97;;;8.30;90.40;;;;;;5091709;28;20063;-74
2022/04/19 10:16:13;;;;;;;11.20;8.15;;;8.30;91.10;;;;;;5091992;28;20392;-73
2022/04/19 10:18:39;;;;;;;10.23;7.07;;;8.30;91.20;;;;;;5091492;28;20491;-73
2022/04/19 10:21:08;;;;;;;8.68;6.57;;;8.30;91.60;;;;;;5092345;28;20175;-73
2022/04/19 10:23:39;;;;;;;10.30;7.07;;;8.30;91.90;;;;;;5091709;28;20020;-73
2022/04/19 10:26:18;;;;;;;8.27;7.05;;;8.20;92.10;;;;;;5092220;28;20028;-73
2022/04/19 10:28:46;;;;;;;8.77;6.95;;;8.20;92.30;;;;;;5091803;28;20044;-72
2022/04/19 10:31:34;;;;;;;8.73;7.10;;;8.20;92.60;;;;;;5092236;28;20099;-72
2022/04/19 10:34:06;;;;;;;7.43;5.53;;;8.10;92.90;;;;;;5090157;28;20024;-72
2022/04/19 10:36:39;;;;;;;8.05;7.15;;;8.10;92.80;;;;;;5089702;28;20028;-73
2022/04/19 10:39:11;;;;;;;13.75;7.70;;;8.10;92.80;;;;;;5091969;28;20031;-73
2022/04/19 10:41:51;;;;;;;8.43;7.63;;;8.10;93.40;;;;;;5091167;28;20051;-73
2022/04/19 10:44:45;;;;;;;8.15;6.95;;;8.10;93.60;;;;;;5091939;28;20020;-72
2022/04/19 10:47:19;;;;;;;7.55;6.60;;;8.10;93.50;;;;;;5090710;28;20082;-73
2022/04/19 10:50:01;;;;;;;9.90;6.68;;;8.10;93.90;;;;;;5091382;28;20032;-73
2022/04/19 10:52:36;;;;;;;8.70;7.00;;;8.10;94.60;;;;;;5073530;28;20024;-72
2022/04/19 10:55:06;;;;;;;7.00;6.30;;;8.10;95.00;;;;;;5073545;28;20053;-73
2022/04/19 11:00:34;;;;;;;10.80;6.18;;;8.10;95.10;;;;;;5090741;28;20083;-73
2022/04/19 11:03:13;;;;;;;10.20;6.32;;;8.10;95.20;;;;;;5091759;28;20069;-72
2022/04/19 11:05:43;;;;;;;7.28;6.18;;;8.10;95.10;;;;;;5090796;28;20436;-73
2022/04/19 11:08:24;;;;;;;6.53;5.85;;;8.10;95.30;;;;;;5095185;28;20067;-74
2022/04/19 11:10:56;;;;;;;7.43;5.10;;;8.10;95.00;;;;;;5097753;28;20074;-72
2022/04/19 11:13:22;;;;;;;6.13;5.53;;;8.00;95.00;;;;;;5098433;28;20069;-74
2022/04/19 11:16:13;;;;;;;6.32;5.30;;;8.00;94.90;;;;;;5097909;28;20038;-73
2022/04/19 11:18:39;;;;;;;6.03;5.43;;;8.00;94.30;;;;;;5097521;28;20414;-74
2022/04/19 11:21:12;;;;;;;7.13;5.15;;;8.00;94.30;;;;;;5098624;28;20054;-73
2022/04/19 11:23:48;;;;;;;7.10;5.45;;;8.00;94.50;;;;;;5097964;28;20032;-73
2022/04/19 11:26:35;;;;;;;6.80;5.47;;;8.00;94.40;;;;;;5098191;28;20023;-73
2022/04/19 11:29:10;;;;;;;6.10;5.50;;;8.00;94.80;;;;;;5079810;28;20444;-73
2022/04/19 11:31:55;;;;;;;6.07;5.47;;;7.90;94.00;;;;;;5097637;28;20111;-74
2022/04/19 11:34:21;;;;;;;5.85;5.35;;;7.90;94.20;;;;;;5080660;28;20047;-73
2022/04/19 11:36:47;;;;;;;6.80;5.55;;;7.90;94.50;;;;;;5097314;28;20028;-73
2022/04/19 11:46:44;;;;;;;5.55;5.05;;;8.00;94.40;;;;;;5098302;28;20036;-74
2022/04/19 11:47:47;;;;;;;7.45;5.68;;;8.10;94.90;;;;;;5097537;28;20051;-74
2022/04/19 11:50:26;;;;;;;6.60;5.45;;;8.10;94.90;;;;;;5097991;28;20028;-73
2022/04/19 11:52:51;;;;;;;7.45;5.95;;;8.00;93.80;;;;;;5097439;28;20103;-73
2022/04/19 11:55:18;;;;;;;5.90;5.32;;;8.00;94.20;;;;;;5079776;28;20070;-73
2022/04/19 11:57:44;;;;;;;7.05;6.32;;;8.00;94.00;;;;;;5097419;28;20028;-74
2022/04/19 12:00:16;;;;;;;6.90;6.20;;;8.00;94.00;;;;;;5097609;28;20082;-74
2022/04/19 12:02:41;;;;;;;6.88;5.78;;;8.00;94.10;;;;;;5097413;28;20077;-73
2022/04/19 12:05:07;;;;;;;6.88;6.18;;;7.90;94.30;;;;;;5098106;28;20505;-74
2022/04/19 12:07:45;;;;;;;8.52;6.03;;;7.90;94.50;;;;;;5097690;28;20051;-80
2022/04/19 12:10:10;;;;;;;7.70;6.80;;;7.90;95.00;;;;;;5097676;28;20102;-74
2022/04/19 12:12:37;;;;;;;6.93;6.22;;;7.90;95.30;;;;;;5097358;28;20530;-74
2022/04/19 12:15:03;;;;;;;6.22;5.63;;;7.90;96.00;;;;;;5097921;28;20061;-74
2022/04/19 12:17:30;;;;;;;7.32;6.18;;;7.90;96.00;;;;;;5097665;28;20075;-74
2022/04/19 12:20:04;;;;;;;5.88;5.28;;;7.90;95.50;;;;;;5094415;28;20158;-73
2022/04/19 12:22:33;;;;;;;6.55;5.93;;;7.90;95.70;;;;;;5094648;28;20055;-74
2022/04/19 12:24:59;;;;;;;7.05;6.10;;;7.90;95.50;;;;;;5094014;28;20020;-74
2022/04/19 12:27:29;;;;;;;7.65;6.78;;;7.90;95.40;;;;;;5094587;28;20326;-74
2022/04/19 12:30:02;;;;;;;6.95;6.28;;;8.00;95.70;;;;;;5093937;28;20034;-73
2022/04/19 12:32:52;;;;;;;7.68;6.47;;;8.00;95.80;;;;;;5094610;28;20116;-73
2022/04/19 12:35:22;;;;;;;8.18;6.18;;;8.00;96.10;;;;;;5094513;28;20032;-73
2022/04/19 12:38:07;;;;;;;6.87;6.27;;;8.00;95.40;;;;;;5089763;28;20059;-73
2022/04/19 12:40:33;;;;;;;6.18;5.57;;;8.00;95.00;;;;;;5074090;28;20025;-73
2022/04/19 12:42:59;;;;;;;5.40;4.88;;;7.90;95.20;;;;;;5073452;28;20027;-74
2022/04/19 12:45:31;;;;;;;7.82;6.07;;;7.90;94.90;;;;;;5074079;28;20032;-73
2022/04/19 12:48:00;;;;;;;6.95;5.88;;;7.80;95.00;;;;;;5073461;28;20371;-74
2022/04/19 12:50:27;;;;;;;6.78;6.07;;;7.80;95.30;;;;;;5073911;28;20102;-74
2022/04/19 12:52:53;;;;;;;6.75;5.53;;;7.80;96.00;;;;;;5055248;28;20062;-74
2022/04/19 12:55:31;;;;;;;6.85;5.95;;;7.80;95.20;;;;;;5073771;28;20052;-74
2022/04/19 12:58:08;;;;;;;5.95;5.18;;;7.80;95.50;;;;;;5073035;28;20138;-74
2022/04/19 13:00:35;;;;;;;5.78;5.18;;;7.80;95.70;;;;;;5073511;28;20554;-73
2022/04/19 13:03:00;;;;;;;5.43;4.93;;;7.80;95.60;;;;;;5054862;28;20386;-73
2022/04/19 13:12:16;;;;;;;10.32;5.70;;;7.90;95.70;;;;;;5073352;28;20028;-73
2022/04/19 13:13:39;;;;;;;7.03;6.32;;;8.00;96.60;;;;;;5072606;28;20134;-73
2022/04/19 13:16:05;;;;;;;6.53;5.80;;;8.00;96.70;;;;;;5073475;28;20121;-74
2022/04/19 13:18:31;;;;;;;6.78;5.95;;;8.00;96.40;;;;;;5073358;28;20111;-73
2022/04/19 13:20:56;;;;;;;8.38;6.25;;;8.10;96.50;;;;;;5072589;28;20031;-75
2022/04/19 13:23:22;;;;;;;7.88;6.35;;;8.10;97.00;;;;;;5075106;28;20028;-74
2022/04/19 13:25:48;;;;;;;6.30;5.80;;;8.10;96.90;;;;;;5092731;28;20081;-73
2022/04/19 13:28:14;;;;;;;6.50;5.93;;;8.10;97.00;;;;;;5093351;28;20039;-74
2022/04/19 13:30:41;;;;;;;6.38;5.60;;;8.10;97.40;;;;;;5091883;28;20107;-77
2022/04/19 13:33:07;;;;;;;5.93;5.43;;;8.10;97.10;;;;;;5092814;28;20056;-73
2022/04/19 13:35:32;;;;;;;5.93;5.32;;;8.20;96.40;;;;;;5093276;28;20059;-73
2022/04/19 13:40:42;;;;;;;6.47;5.82;;;8.20;96.30;;;;;;5092191;28;20026;-74
2022/04/19 13:43:08;;;;;;;7.25;6.55;;;8.20;97.10;;;;;;5093023;28;20119;-73
2022/04/19 13:45:52;;;;;;;6.10;5.60;;;8.10;96.80;;;;;;5092469;28;20472;-73